Time;durP1;ratioP1;P1;durP2;ratioP2;P2;SDS_P1;SDS_P2;PMS_P1;PMS_P2;Temp;Humidity;BMP_temperature;BMP_pressure;BME280_temperature;BME280_humidity;BME280_pressure;Samples;Min_cycle;Max_cycle;Signal;HPM_P1;HPM_P2
2022/01/23 00:02:07;;;;;;;;;;;-4.20;99.90;;;;;;4190486;28;19980;-58
2022/01/23 00:04:08;;;;;;;;;;;-4.10;99.90;;;;;;4189893;28;20426;-61
2022/01/23 00:06:09;;;;;;;;;;;-4.10;99.90;;;;;;4190396;28;20172;-59
2022/01/23 00:08:13;;;;;;;;;;;-4.10;99.90;;;;;;4188611;28;19912;-59
2022/01/23 00:10:14;;;;;;;;;;;-4.10;99.90;;;;;;4189726;28;19912;-58
2022/01/23 00:12:18;;;;;;;;;;;-4.10;99.90;;;;;;4188125;28;19917;-59
2022/01/23 00:18:58;;;;;;;;;;;-4.00;99.90;;;;;;4207260;28;20421;-59
2022/01/23 00:20:59;;;;;;;;;;;-4.00;99.90;;;;;;4205379;28;19916;-59
2022/01/23 00:23:11;;;;;;;;;;;-4.00;99.90;;;;;;4207823;28;20435;-57
2022/01/23 00:32:11;;;;;;;;;;;-4.00;99.90;;;;;;4209704;28;20014;-59
2022/01/23 00:34:12;;;;;;;;;;;-4.00;99.90;;;;;;4209503;28;19912;-58
2022/01/23 00:36:13;;;;;;;;;;;-4.00;99.90;;;;;;4209586;28;19912;-58
2022/01/23 00:38:14;;;;;;;;;;;-4.00;99.90;;;;;;4208304;28;19911;-59
2022/01/23 00:40:16;;;;;;;;;;;-4.00;99.90;;;;;;4210261;28;19920;-58
2022/01/23 00:42:17;;;;;;;;;;;-4.00;99.90;;;;;;4208880;28;20328;-58
2022/01/23 00:44:18;;;;;;;;;;;-4.00;99.90;;;;;;4209435;28;19970;-59
2022/01/23 00:48:26;;;;;;;;;;;-4.00;99.90;;;;;;4210335;28;19966;-60
2022/01/23 00:50:28;;;;;;;;;;;-4.00;99.90;;;;;;4202970;28;19912;-60
2022/01/23 00:52:29;;;;;;;;;;;-4.00;99.90;;;;;;4193816;28;19916;-58
2022/01/23 00:54:30;;;;;;;;;;;-3.90;99.90;;;;;;4192372;28;20400;-59
2022/01/23 00:56:31;;;;;;;;;;;-4.00;99.90;;;;;;4192425;28;20463;-59
2022/01/23 00:58:31;;;;;;;;;;;-3.90;99.90;;;;;;4192164;28;21001;-58
2022/01/23 01:00:32;;;;;;;;;;;-3.90;99.90;;;;;;4192606;28;19912;-57
2022/01/23 01:02:34;;;;;;;;;;;-4.00;99.90;;;;;;4192391;28;20316;-58
2022/01/23 01:04:35;;;;;;;;;;;-4.00;99.90;;;;;;4192106;28;19925;-59
2022/01/23 01:06:35;;;;;;;;;;;-4.00;99.90;;;;;;4192897;28;19912;-61
2022/01/23 01:08:36;;;;;;;;;;;-4.00;99.90;;;;;;4191867;28;20343;-58
2022/01/23 01:10:45;;;;;;;;;;;-4.00;99.90;;;;;;4192504;28;19913;-56
2022/01/23 01:12:49;;;;;;;;;;;-4.00;99.90;;;;;;4191613;28;19966;-58
2022/01/23 01:30:59;;;;;;;;;;;-3.90;99.90;;;;;;4192030;28;19970;-59
2022/01/23 01:35:39;;;;;;;;;;;-3.90;99.90;;;;;;4192010;28;20364;-59
2022/01/23 01:37:34;;;;;;;;;;;-3.90;99.90;;;;;;4190865;28;19962;-57
2022/01/23 01:39:35;;;;;;;;;;;-3.90;99.90;;;;;;4192069;28;20379;-59
2022/01/23 01:41:37;;;;;;;;;;;-3.90;99.90;;;;;;4191732;28;19913;-58
2022/01/23 01:43:38;;;;;;;;;;;-3.90;99.90;;;;;;4191488;28;19981;-58
2022/01/23 01:45:41;;;;;;;;;;;-3.90;99.90;;;;;;4191344;28;19924;-58
2022/01/23 01:47:49;;;;;;;;;;;-3.90;99.90;;;;;;4191363;28;19909;-61
2022/01/23 01:49:49;;;;;;;;;;;-3.90;99.90;;;;;;4192390;28;19913;-57
2022/01/23 01:51:52;;;;;;;;;;;-3.90;99.90;;;;;;4207970;28;19942;-57
2022/01/23 01:53:57;;;;;;;;;;;-3.90;99.90;;;;;;4209237;28;19912;-59
2022/01/23 01:55:59;;;;;;;;;;;-3.90;99.90;;;;;;4207707;28;20025;-59
2022/01/23 01:58:04;;;;;;;;;;;-3.90;99.90;;;;;;4209036;28;19970;-58
2022/01/23 02:09:44;;;;;;;;;;;-3.90;99.90;;;;;;4208079;28;19969;-58
2022/01/23 02:13:58;;;;;;;;;;;-3.90;99.90;;;;;;4207721;28;19954;-59
2022/01/23 02:18:22;;;;;;;;;;;-3.90;99.90;;;;;;4207762;28;20336;-60
2022/01/23 02:50:54;;;;;;;;;;;-3.80;99.90;;;;;;4200095;28;20081;-62
2022/01/23 02:55:11;;;;;;;;;;;-3.80;99.90;;;;;;4186534;28;19959;-58
2022/01/23 02:57:19;;;;;;;;;;;-3.80;99.90;;;;;;4191770;28;19920;-60
2022/01/23 02:59:28;;;;;;;;;;;-3.80;99.90;;;;;;4186197;28;19916;-59
2022/01/23 03:01:31;;;;;;;;;;;-3.80;99.90;;;;;;4197848;28;19916;-59
2022/01/23 03:03:37;;;;;;;;;;;-3.80;99.90;;;;;;4205038;28;19912;-59
2022/01/23 03:05:40;;;;;;;;;;;-3.90;99.90;;;;;;4190603;28;19916;-59
2022/01/23 03:28:18;;;;;;;;;;;-3.80;99.90;;;;;;4191103;28;19912;-59
2022/01/23 03:34:26;;;;;;;;;;;-3.80;99.90;;;;;;4206714;28;19965;-60
2022/01/23 03:36:26;;;;;;;;;;;-3.80;99.90;;;;;;4207537;28;19912;-57
2022/01/23 03:38:27;;;;;;;;;;;-3.80;99.90;;;;;;4206791;28;19912;-58
2022/01/23 03:40:28;;;;;;;;;;;-3.70;99.90;;;;;;4207143;28;20364;-58
2022/01/23 03:42:32;;;;;;;;;;;-3.70;99.90;;;;;;4207176;28;19912;-58
2022/01/23 03:44:37;;;;;;;;;;;-3.70;99.90;;;;;;4206677;28;20340;-58
2022/01/23 03:50:47;;;;;;;;;;;-3.70;99.90;;;;;;4195674;28;19958;-61
2022/01/23 03:52:48;;;;;;;;;;;-3.70;99.90;;;;;;4206062;28;19958;-58
2022/01/23 03:54:49;;;;;;;;;;;-3.70;99.90;;;;;;4190588;28;19912;-58
2022/01/23 03:56:50;;;;;;;;;;;-3.70;99.90;;;;;;4189852;28;19912;-58
2022/01/23 03:58:51;;;;;;;;;;;-3.70;99.90;;;;;;4205090;28;19917;-59
2022/01/23 04:00:52;;;;;;;;;;;-3.70;99.90;;;;;;4206162;28;19965;-58
2022/01/23 04:02:53;;;;;;;;;;;-3.70;99.90;;;;;;4207672;28;19920;-58
2022/01/23 04:04:54;;;;;;;;;;;-3.70;99.90;;;;;;4207511;28;20495;-57
2022/01/23 04:06:55;;;;;;;;;;;-3.70;99.90;;;;;;4199839;28;19919;-59
2022/01/23 04:08:55;;;;;;;;;;;-3.70;99.90;;;;;;4192851;28;20729;-58
2022/01/23 04:10:56;;;;;;;;;;;-3.70;99.90;;;;;;4192582;28;19913;-59
2022/01/23 04:13:07;;;;;;;;;;;-3.70;99.90;;;;;;4192158;28;19916;-60
2022/01/23 04:45:08;;;;;;;;;;;-3.70;99.90;;;;;;4209646;28;19966;-57
2022/01/23 05:06:09;;;;;;;;;;;-3.70;99.90;;;;;;4176817;28;19991;-59
2022/01/23 05:08:17;;;;;;;;;;;-3.70;99.90;;;;;;4193143;28;19959;-58
2022/01/23 05:10:18;;;;;;;;;;;-3.70;99.90;;;;;;4191678;28;19916;-57
2022/01/23 05:12:23;;;;;;;;;;;-3.60;99.90;;;;;;4193523;28;20315;-58
2022/01/23 05:14:31;;;;;;;;;;;-3.70;99.90;;;;;;4191669;28;20315;-59
2022/01/23 05:16:33;;;;;;;;;;;-3.60;99.90;;;;;;4192037;28;19912;-59
2022/01/23 05:18:35;;;;;;;;;;;-3.60;99.90;;;;;;4190268;28;20310;-59
2022/01/23 05:20:38;;;;;;;;;;;-3.60;99.90;;;;;;4193102;28;19912;-59
2022/01/23 05:22:45;;;;;;;;;;;-3.60;99.90;;;;;;4191996;28;19969;-58
2022/01/23 05:27:22;;;;;;;;;;;-3.60;99.90;;;;;;4146160;28;19959;-59
2022/01/23 05:29:23;;;;;;;;;;;-3.60;99.90;;;;;;4192601;28;20419;-60
2022/01/23 05:31:24;;;;;;;;;;;-3.60;99.90;;;;;;4190903;28;19916;-60
2022/01/23 05:33:24;;;;;;;;;;;-3.60;99.90;;;;;;4192450;28;19912;-59
2022/01/23 05:35:28;;;;;;;;;;;-3.60;99.90;;;;;;4191545;28;19916;-59
2022/01/23 05:37:29;;;;;;;;;;;-3.60;99.90;;;;;;4191893;28;20284;-60
2022/01/23 05:39:32;;;;;;;;;;;-3.60;99.90;;;;;;4191946;28;19917;-58
2022/01/23 05:41:33;;;;;;;;;;;-3.60;99.90;;;;;;4191517;28;20263;-59
2022/01/23 05:43:34;;;;;;;;;;;-3.60;99.90;;;;;;4191805;28;19915;-60
2022/01/23 05:45:41;;;;;;;;;;;-3.60;99.90;;;;;;4190429;28;19920;-60
2022/01/23 05:47:41;;;;;;;;;;;-3.60;99.90;;;;;;4192158;28;19962;-60
2022/01/23 05:49:43;;;;;;;;;;;-3.60;99.90;;;;;;4173047;28;19917;-62
2022/01/23 05:51:44;;;;;;;;;;;-3.60;99.90;;;;;;4192602;28;19942;-59
2022/01/23 05:53:44;;;;;;;;;;;-3.60;99.90;;;;;;4191605;28;19921;-62
2022/01/23 05:55:45;;;;;;;;;;;-3.60;99.90;;;;;;4192459;28;19916;-62
2022/01/23 05:57:46;;;;;;;;;;;-3.60;99.90;;;;;;4198523;28;19920;-61
2022/01/23 05:59:47;;;;;;;;;;;-3.60;99.90;;;;;;4208006;28;19912;-60
2022/01/23 06:01:51;;;;;;;;;;;-3.60;99.90;;;;;;4207892;28;19955;-59
2022/01/23 06:03:52;;;;;;;;;;;-3.60;99.90;;;;;;4209201;28;19965;-58
2022/01/23 06:05:54;;;;;;;;;;;-3.60;99.90;;;;;;4207220;28;19924;-61
2022/01/23 06:07:55;;;;;;;;;;;-3.50;99.90;;;;;;4208531;28;19916;-59
2022/01/23 06:09:56;;;;;;;;;;;-3.50;99.90;;;;;;4207963;28;19916;-61
2022/01/23 06:11:57;;;;;;;;;;;-3.50;99.90;;;;;;4207935;28;19912;-61
2022/01/23 06:13:58;;;;;;;;;;;-3.50;99.90;;;;;;4208115;28;19912;-60
2022/01/23 06:16:00;;;;;;;;;;;-3.50;99.90;;;;;;4207731;28;19912;-61
2022/01/23 06:18:01;;;;;;;;;;;-3.50;99.90;;;;;;4208223;28;19912;-59
2022/01/23 06:20:02;;;;;;;;;;;-3.50;99.90;;;;;;4206278;28;19927;-60
2022/01/23 06:22:03;;;;;;;;;;;-3.40;99.90;;;;;;4208283;28;19999;-61
2022/01/23 06:24:08;;;;;;;;;;;-3.40;99.90;;;;;;4206892;28;19911;-61
2022/01/23 06:26:08;;;;;;;;;;;-3.40;99.90;;;;;;4207239;28;19977;-59
2022/01/23 06:28:10;;;;;;;;;;;-3.50;99.90;;;;;;4205703;28;20425;-60
2022/01/23 06:30:11;;;;;;;;;;;-3.50;99.90;;;;;;4208399;28;20368;-60
2022/01/23 06:32:12;;;;;;;;;;;-3.40;99.90;;;;;;4206779;28;20027;-60
2022/01/23 06:34:15;;;;;;;;;;;-3.40;99.90;;;;;;4208006;28;19912;-58
2022/01/23 06:36:16;;;;;;;;;;;-3.40;99.90;;;;;;4206462;28;19912;-60
2022/01/23 06:38:16;;;;;;;;;;;-3.40;99.90;;;;;;4208107;28;20018;-60
2022/01/23 06:40:18;;;;;;;;;;;-3.40;99.90;;;;;;4206572;28;19916;-60
2022/01/23 06:42:18;;;;;;;;;;;-3.40;99.90;;;;;;4207008;28;19957;-61
2022/01/23 06:44:19;;;;;;;;;;;-3.30;99.90;;;;;;4207570;28;20264;-59
2022/01/23 06:46:20;;;;;;;;;;;-3.30;99.90;;;;;;4206746;28;19920;-60
2022/01/23 06:48:21;;;;;;;;;;;-3.20;99.90;;;;;;4207811;28;19912;-59
2022/01/23 06:50:24;;;;;;;;;;;-3.20;99.90;;;;;;4206949;28;19946;-60
2022/01/23 06:52:25;;;;;;;;;;;-3.10;99.90;;;;;;4208283;28;20385;-59
2022/01/23 06:54:27;;;;;;;;;;;-3.20;99.90;;;;;;4188820;28;19913;-60
2022/01/23 06:56:28;;;;;;;;;;;-3.20;99.90;;;;;;4207788;28;19913;-61
2022/01/23 06:58:29;;;;;;;;;;;-3.20;99.90;;;;;;4192257;28;20476;-61
2022/01/23 07:00:32;;;;;;;;;;;-3.20;99.90;;;;;;4190459;28;20383;-60
2022/01/23 07:02:33;;;;;;;;;;;-3.20;99.90;;;;;;4189282;28;19958;-60
2022/01/23 07:04:34;;;;;;;;;;;-3.20;99.90;;;;;;4190372;28;19912;-59
2022/01/23 07:06:35;;;;;;;;;;;-3.20;99.90;;;;;;4188694;28;19920;-60
2022/01/23 07:08:36;;;;;;;;;;;-3.20;99.90;;;;;;4190436;28;19967;-61
2022/01/23 07:10:37;;;;;;;;;;;-3.20;99.90;;;;;;4190134;28;19916;-60
2022/01/23 07:12:38;;;;;;;;;;;-3.20;99.90;;;;;;4190201;28;20505;-61
2022/01/23 07:14:39;;;;;;;;;;;-3.20;99.90;;;;;;4190049;28;19919;-60
2022/01/23 07:16:40;;;;;;;;;;;-3.20;99.90;;;;;;4190127;28;20352;-60
2022/01/23 07:18:41;;;;;;;;;;;-3.20;99.90;;;;;;4191009;28;20364;-60
2022/01/23 07:20:42;;;;;;;;;;;-3.20;99.90;;;;;;4189079;28;19920;-60
2022/01/23 07:22:43;;;;;;;;;;;-3.10;99.90;;;;;;4191716;28;20378;-61
2022/01/23 07:24:44;;;;;;;;;;;-3.10;99.90;;;;;;4189876;28;19959;-58
2022/01/23 07:26:45;;;;;;;;;;;-3.10;99.90;;;;;;4191133;28;19927;-59
2022/01/23 07:28:47;;;;;;;;;;;-3.10;99.90;;;;;;4189492;28;19924;-60
2022/01/23 07:32:51;;;;;;;;;;;-3.00;99.90;;;;;;4189978;28;19925;-61
2022/01/23 07:34:52;;;;;;;;;;;-3.00;99.90;;;;;;4190412;28;19916;-58
2022/01/23 07:36:53;;;;;;;;;;;-3.00;99.90;;;;;;4189093;28;19958;-56
2022/01/23 07:38:54;;;;;;;;;;;-3.00;99.90;;;;;;4192762;28;19962;-60
2022/01/23 07:40:55;;;;;;;;;;;-3.00;99.90;;;;;;4193338;28;19974;-59
2022/01/23 07:42:56;;;;;;;;;;;-3.00;99.90;;;;;;4192721;28;19912;-59
2022/01/23 07:44:57;;;;;;;;;;;-3.00;99.90;;;;;;4193617;28;19912;-60
2022/01/23 07:46:58;;;;;;;;;;;-2.90;99.90;;;;;;4193422;28;19943;-58
2022/01/23 07:48:59;;;;;;;;;;;-3.00;99.90;;;;;;4193944;28;19916;-58
2022/01/23 07:51:00;;;;;;;;;;;-3.00;99.90;;;;;;4193379;28;19970;-60
2022/01/23 07:53:01;;;;;;;;;;;-3.00;99.90;;;;;;4194369;28;19908;-59
2022/01/23 07:55:09;;;;;;;;;;;-2.90;99.90;;;;;;4191969;28;19978;-58
2022/01/23 07:57:10;;;;;;;;;;;-2.90;99.90;;;;;;4194237;28;21100;-59
2022/01/23 07:59:11;;;;;;;;;;;-3.00;99.90;;;;;;4195658;28;19912;-59
2022/01/23 08:01:12;;;;;;;;;;;-2.90;99.90;;;;;;4203353;28;20006;-60
2022/01/23 08:03:13;;;;;;;;;;;-2.90;99.90;;;;;;4199255;28;19913;-60
2022/01/23 08:05:14;;;;;;;;;;;-2.90;99.90;;;;;;4193667;28;20739;-59
2022/01/23 08:07:31;;;;;;;;;;;-2.90;99.90;;;;;;4198673;28;19919;-60
2022/01/23 08:09:32;;;;;;;;;;;-2.80;99.90;;;;;;4210049;28;19967;-59
2022/01/23 08:11:33;;;;;;;;;;;-2.80;99.90;;;;;;4209575;28;19912;-58
2022/01/23 08:13:34;;;;;;;;;;;-2.80;99.90;;;;;;4210755;28;19962;-59
2022/01/23 08:15:35;;;;;;;;;;;-2.80;99.90;;;;;;4203982;28;19912;-60
2022/01/23 08:17:36;;;;;;;;;;;-2.70;99.90;;;;;;4193258;28;19909;-59
2022/01/23 08:19:37;;;;;;;;;;;-2.70;99.90;;;;;;4193045;28;20378;-60
2022/01/23 08:21:37;;;;;;;;;;;-2.70;99.90;;;;;;4193028;28;19923;-58
2022/01/23 08:23:38;;;;;;;;;;;-2.60;99.90;;;;;;4192498;28;19919;-59
2022/01/23 08:25:39;;;;;;;;;;;-2.50;99.90;;;;;;4192375;28;20418;-59
2022/01/23 08:27:40;;;;;;;;;;;-2.50;99.90;;;;;;4192743;28;19913;-60
2022/01/23 08:29:41;;;;;;;;;;;-2.40;99.90;;;;;;4191496;28;20360;-59
2022/01/23 08:31:45;;;;;;;;;;;-2.40;99.90;;;;;;4193065;28;19912;-59
2022/01/23 08:33:46;;;;;;;;;;;-2.40;99.90;;;;;;4206119;28;20252;-60
2022/01/23 08:35:47;;;;;;;;;;;-2.30;99.90;;;;;;4209866;28;19957;-60
2022/01/23 08:37:48;;;;;;;;;;;-2.30;99.90;;;;;;4208866;28;19912;-60
2022/01/23 08:39:49;;;;;;;;;;;-2.30;99.90;;;;;;4209783;28;20014;-60
2022/01/23 08:41:50;;;;;;;;;;;-2.30;99.90;;;;;;4207635;28;19912;-60
2022/01/23 08:43:51;;;;;;;;;;;-2.20;99.90;;;;;;4209323;28;19916;-59
2022/01/23 08:45:52;;;;;;;;;;;-2.20;99.90;;;;;;4208272;28;19920;-60
2022/01/23 08:47:53;;;;;;;;;;;-2.20;99.90;;;;;;4209708;28;20342;-60
2022/01/23 08:49:54;;;;;;;;;;;-2.20;99.90;;;;;;4207158;28;19912;-59
2022/01/23 08:51:56;;;;;;;;;;;-2.20;99.90;;;;;;4208699;28;20283;-60
2022/01/23 08:53:59;;;;;;;;;;;-2.20;99.90;;;;;;4209604;28;20245;-60
2022/01/23 08:56:00;;;;;;;;;;;-2.20;99.90;;;;;;4208827;28;20001;-59
2022/01/23 08:58:01;;;;;;;;;;;-2.10;99.90;;;;;;4209254;28;19916;-60
2022/01/23 09:00:03;;;;;;;;;;;-2.10;99.90;;;;;;4190488;28;19917;-58
2022/01/23 09:02:04;;;;;;;;;;;-2.10;99.90;;;;;;4209706;28;20245;-59
2022/01/23 09:04:05;;;;;;;;;;;-2.10;99.90;;;;;;4207566;28;20041;-59
2022/01/23 09:06:07;;;;;;;;;;;-2.10;99.90;;;;;;4209114;28;19920;-61
2022/01/23 09:08:08;;;;;;;;;;;-2.10;99.90;;;;;;4191463;28;20311;-59
2022/01/23 09:10:10;;;;;;;;;;;-2.00;99.90;;;;;;4192895;28;20338;-58
2022/01/23 09:12:30;;;;;;;;;;;-2.00;99.90;;;;;;4190911;28;19958;-61
2022/01/23 09:14:31;;;;;;;;;;;-2.10;99.90;;;;;;4174386;28;19909;-57
2022/01/23 09:16:44;;;;;;;;;;;-2.10;99.90;;;;;;4191316;28;19918;-60
2022/01/23 09:18:46;;;;;;;;;;;-2.00;99.90;;;;;;4193000;28;20372;-63
2022/01/23 09:20:47;;;;;;;;;;;-1.90;99.90;;;;;;4191375;28;20326;-59
2022/01/23 09:22:47;;;;;;;;;;;-1.80;99.90;;;;;;4192119;28;19913;-59
2022/01/23 09:24:48;;;;;;;;;;;-1.80;99.90;;;;;;4190305;28;20357;-59
2022/01/23 09:26:55;;;;;;;;;;;-1.80;99.90;;;;;;4191981;28;19916;-59
2022/01/23 09:28:59;;;;;;;;;;;-1.80;99.90;;;;;;4191735;28;19913;-58
2022/01/23 09:31:00;;;;;;;;;;;-1.90;99.90;;;;;;4190984;28;19958;-59
2022/01/23 09:33:02;;;;;;;;;;;-1.90;99.90;;;;;;4191215;28;19958;-60
2022/01/23 09:35:03;;;;;;;;;;;-1.90;99.90;;;;;;4191589;28;19988;-60
2022/01/23 09:37:05;;;;;;;;;;;-1.90;99.90;;;;;;4191846;28;20322;-60
2022/01/23 09:39:06;;;;;;;;;;;-1.90;99.90;;;;;;4191226;28;19943;-60
2022/01/23 09:41:07;;;;;;;;;;;-1.90;99.90;;;;;;4192429;28;19912;-60
2022/01/23 09:43:12;;;;;;;;;;;-1.80;99.90;;;;;;4190445;28;19916;-60
2022/01/23 09:45:13;;;;;;;;;;;-1.80;99.90;;;;;;4192633;28;19942;-59
2022/01/23 09:47:15;;;;;;;;;;;-1.80;99.90;;;;;;4191018;28;19920;-60
2022/01/23 09:49:17;;;;;;;;;;;-1.80;99.90;;;;;;4192194;28;19978;-60
2022/01/23 09:51:22;;;;;;;;;;;-1.90;99.90;;;;;;4190999;28;19916;-60
2022/01/23 09:53:24;;;;;;;;;;;-1.90;99.90;;;;;;4192668;28;20009;-61
2022/01/23 09:55:26;;;;;;;;;;;-1.90;99.90;;;;;;4190600;28;19954;-58
2022/01/23 09:57:32;;;;;;;;;;;-1.90;99.90;;;;;;4191995;28;19978;-60
2022/01/23 10:01:45;;;;;;;;;;;-1.90;99.90;;;;;;4196421;23;20039;-60
2022/01/23 10:03:46;;;;;;;;;;;-1.90;99.90;;;;;;4173686;28;20326;-60
2022/01/23 10:05:49;;;;;;;;;;;-1.80;99.90;;;;;;4175202;28;19921;-60
2022/01/23 10:07:51;;;;;;;;;;;-1.80;99.90;;;;;;4174080;28;19959;-60
2022/01/23 10:09:56;;;;;;;;;;;-1.70;99.90;;;;;;4174704;28;19951;-59
2022/01/23 10:11:57;;;;;;;;;;;-1.70;99.90;;;;;;4173748;28;19916;-58
2022/01/23 10:13:59;;;;;;;;;;;-1.60;99.90;;;;;;4175568;28;19909;-59
2022/01/23 10:16:00;;;;;;;;;;;-1.60;99.90;;;;;;4173373;28;19913;-59
2022/01/23 10:18:01;;;;;;;;;;;-1.60;99.90;;;;;;4173980;28;20330;-61
2022/01/23 10:20:04;;;;;;;;;;;-1.50;99.90;;;;;;4173001;28;20663;-60
2022/01/23 10:22:06;;;;;;;;;;;-1.50;99.90;;;;;;4173601;28;19962;-57
2022/01/23 10:24:09;;;;;;;;;;;-1.50;99.90;;;;;;4174069;28;19958;-55
2022/01/23 10:26:10;;;;;;;;;;;-1.50;99.90;;;;;;4174141;28;19921;-60
2022/01/23 10:28:17;;;;;;;;;;;-1.60;99.90;;;;;;4156038;28;19919;-60
2022/01/23 10:30:19;;;;;;;;;;;-1.60;99.90;;;;;;4155386;28;19948;-60
2022/01/23 10:32:21;;;;;;;;;;;-1.60;99.90;;;;;;4156313;28;19956;-58
2022/01/23 10:34:41;;;;;;;;;;;-1.70;99.90;;;;;;4173072;28;19912;-59
2022/01/23 10:36:48;;;;;;;;;;;-1.70;99.90;;;;;;4173898;28;20330;-59
2022/01/23 10:38:48;;;;;;;;;;;-1.70;99.90;;;;;;4173103;28;19932;-60
2022/01/23 10:41:01;;;;;;;;;;;-1.60;99.90;;;;;;4173998;28;20451;-60
2022/01/23 10:47:59;;;;;;;;;;;-1.60;99.90;;;;;;4174007;28;20481;-59
2022/01/23 10:50:04;;;;;;;;;;;-1.60;99.90;;;;;;4174141;28;19912;-58
2022/01/23 10:52:05;;;;;;;;;;;-1.60;99.90;;;;;;4173600;28;20416;-60
2022/01/23 10:54:09;;;;;;;;;;;-1.50;99.90;;;;;;4173587;28;19916;-62
2022/01/23 10:56:10;;;;;;;;;;;-1.50;99.90;;;;;;4173505;28;20303;-61
2022/01/23 10:58:19;;;;;;;;;;;-1.40;99.90;;;;;;4174770;28;19970;-58
2022/01/23 11:00:27;;;;;;;;;;;-1.40;99.90;;;;;;4172370;28;20335;-58
2022/01/23 11:02:28;;;;;;;;;;;-1.40;99.90;;;;;;4174730;28;20457;-59
2022/01/23 11:04:29;;;;;;;;;;;-1.40;99.90;;;;;;4172651;28;19920;-60
2022/01/23 11:06:30;;;;;;;;;;;-1.40;99.90;;;;;;4173726;28;20342;-60
2022/01/23 11:08:32;;;;;;;;;;;-1.40;99.90;;;;;;4171842;28;19913;-61
2022/01/23 11:10:32;;;;;;;;;;;-1.40;99.90;;;;;;4174263;28;19913;-57
2022/01/23 11:19:17;;;;;;;;;;;-1.40;99.90;;;;;;4174244;28;19971;-60
2022/01/23 11:21:21;;;;;;;;;;;-1.40;99.90;;;;;;4173224;28;20375;-60
2022/01/23 11:23:27;;;;;;;;;;;-1.40;99.90;;;;;;4156036;28;19913;-58
2022/01/23 11:25:28;;;;;;;;;;;-1.40;99.90;;;;;;4172046;28;19955;-60
2022/01/23 11:27:34;;;;;;;;;;;-1.40;99.90;;;;;;4172548;28;19970;-60
2022/01/23 11:29:35;;;;;;;;;;;-1.40;99.90;;;;;;4172841;28;20443;-60
2022/01/23 11:31:37;;;;;;;;;;;-1.50;99.90;;;;;;4173845;28;19913;-59
2022/01/23 11:33:40;;;;;;;;;;;-1.50;99.90;;;;;;4154170;28;21524;-61
2022/01/23 11:35:41;;;;;;;;;;;-1.50;99.90;;;;;;4174090;28;20261;-59
2022/01/23 11:37:47;;;;;;;;;;;-1.40;99.90;;;;;;4172195;28;19951;-61
2022/01/23 11:39:54;;;;;;;;;;;-1.40;99.90;;;;;;4173554;28;19975;-60
2022/01/23 11:53:45;;;;;;;;;;;-1.40;99.90;;;;;;4173504;28;19974;-60
2022/01/23 11:55:46;;;;;;;;;;;-1.40;99.90;;;;;;4172440;28;19924;-60
2022/01/23 11:57:47;;;;;;;;;;;-1.40;99.90;;;;;;4174124;28;20336;-60
2022/01/23 11:59:48;;;;;;;;;;;-1.30;99.90;;;;;;4167965;28;19924;-59
2022/01/23 12:02:13;;;;;;;;;;;-1.40;99.90;;;;;;4170614;28;19925;-60
2022/01/23 12:04:20;;;;;;;;;;;-1.40;99.90;;;;;;4156158;28;20309;-60
2022/01/23 12:06:21;;;;;;;;;;;-1.30;99.90;;;;;;4173686;28;19916;-58
2022/01/23 12:08:27;;;;;;;;;;;-1.30;99.90;;;;;;4171408;28;19958;-59
2022/01/23 12:10:35;;;;;;;;;;;-1.30;99.90;;;;;;4172989;28;20352;-58
2022/01/23 12:12:41;;;;;;;;;;;-1.30;99.90;;;;;;4172299;28;19908;-61
2022/01/23 12:17:00;;;;;;;;;;;-1.20;99.90;;;;;;4172500;28;20508;-61
2022/01/23 12:19:20;;;;;;;;;;;-1.20;99.90;;;;;;4173405;28;19915;-61
2022/01/23 12:21:28;;;;;;;;;;;-1.30;99.90;;;;;;4172376;28;19916;-60
2022/01/23 12:23:49;;;;;;;;;;;-1.30;99.90;;;;;;4173891;28;19959;-60
2022/01/23 12:25:51;;;;;;;;;;;-1.20;99.90;;;;;;4173812;28;19955;-60
2022/01/23 12:28:28;;;;;;;;;;;-1.30;99.90;;;;;;4175482;28;19971;-60
2022/01/23 12:30:33;;;;;;;;;;;-1.30;99.90;;;;;;4091985;29;19946;-60
2022/01/23 12:32:34;;;;;;;;;;;-1.30;99.90;;;;;;4141266;28;20398;-59
2022/01/23 12:34:52;;;;;;;;;;;-1.40;99.90;;;;;;4175576;28;19913;-61
2022/01/23 12:36:55;;;;;;;;;;;-1.40;99.90;;;;;;4176191;28;19913;-58
2022/01/23 12:39:08;;;;;;;;;;;-1.30;99.90;;;;;;4174792;28;20341;-60
2022/01/23 12:41:22;;;;;;;;;;;-1.30;99.90;;;;;;4176666;28;19970;-59
2022/01/23 12:43:26;;;;;;;;;;;-1.30;99.90;;;;;;4175590;28;19967;-59
2022/01/23 12:45:47;;;;;;;;;;;-1.20;99.90;;;;;;4176661;28;19912;-59
2022/01/23 12:47:48;;;;;;;;;;;-1.30;99.90;;;;;;4175010;28;20937;-59
2022/01/23 12:49:50;;;;;;;;;;;-1.30;99.90;;;;;;4176736;28;20324;-61
2022/01/23 12:52:11;;;;;;;;;;;-1.30;99.90;;;;;;4174585;28;19958;-60
2022/01/23 12:54:17;;;;;;;;;;;-1.30;99.90;;;;;;4173939;28;19990;-61
2022/01/23 12:56:19;;;;;;;;;;;-1.30;99.90;;;;;;4175477;28;20380;-61
2022/01/23 12:58:21;;;;;;;;;;;-1.30;99.90;;;;;;4176398;28;20637;-60
2022/01/23 13:00:26;;;;;;;;;;;-1.40;99.90;;;;;;4158816;28;19967;-61
2022/01/23 13:02:34;;;;;;;;;;;-1.40;99.90;;;;;;4159000;28;19971;-59
2022/01/23 13:04:38;;;;;;;;;;;-1.40;99.90;;;;;;4174525;28;19917;-58
2022/01/23 13:06:47;;;;;;;;;;;-1.30;99.90;;;;;;4175370;28;19975;-56
2022/01/23 13:08:58;;;;;;;;;;;-1.30;99.90;;;;;;4174477;28;19913;-61
2022/01/23 13:13:22;;;;;;;;;;;-1.40;99.90;;;;;;4174954;28;20365;-59
2022/01/23 13:29:51;;;;;;;;;;;-1.70;99.90;;;;;;4175786;28;19913;-58
2022/01/23 13:31:06;;;;;;;;;;;-1.70;99.90;;;;;;4173212;28;20078;-60
2022/01/23 13:33:13;;;;;;;;;;;-1.70;99.90;;;;;;4176216;28;19912;-60
2022/01/23 13:35:17;;;;;;;;;;;-1.70;99.90;;;;;;4174414;28;20371;-58
2022/01/23 13:37:19;;;;;;;;;;;-1.80;99.90;;;;;;4175711;28;19958;-59
2022/01/23 13:39:24;;;;;;;;;;;-1.80;99.90;;;;;;4174310;28;19921;-57
2022/01/23 13:41:35;;;;;;;;;;;-1.80;99.90;;;;;;4175065;28;19943;-60
2022/01/23 13:52:55;;;;;;;;;;;-1.80;99.90;;;;;;4174089;28;19912;-60
2022/01/23 13:59:46;;;;;;;;;;;-1.90;99.90;;;;;;4175409;28;20434;-60
2022/01/23 14:03:51;;;;;;;;;;;-1.90;99.90;;;;;;4175374;28;20383;-60
2022/01/23 14:05:52;;;;;;;;;;;-1.90;99.90;;;;;;4173190;28;20547;-57
2022/01/23 14:07:54;;;;;;;;;;;-2.00;99.90;;;;;;4175437;28;19921;-58
2022/01/23 14:09:56;;;;;;;;;;;-1.90;99.90;;;;;;4173991;28;19996;-58
2022/01/23 14:12:05;;;;;;;;;;;-1.90;99.90;;;;;;4174280;28;20269;-56
2022/01/23 14:14:09;;;;;;;;;;;-1.90;99.90;;;;;;4173974;28;19913;-57
2022/01/23 14:16:10;;;;;;;;;;;-1.90;99.90;;;;;;4174398;28;19913;-59
2022/01/23 14:18:13;;;;;;;;;;;-2.00;99.90;;;;;;4155728;28;19919;-59
2022/01/23 14:20:16;;;;;;;;;;;-2.00;99.90;;;;;;4174381;28;20346;-61
2022/01/23 14:22:25;;;;;;;;;;;-2.00;99.90;;;;;;4173193;28;20002;-61
2022/01/23 14:24:27;;;;;;;;;;;-2.10;99.90;;;;;;4174629;28;19963;-60
2022/01/23 14:26:28;;;;;;;;;;;-2.10;99.90;;;;;;4173495;28;19913;-59
2022/01/23 14:28:40;;;;;;;;;;;-2.10;99.90;;;;;;4173819;28;20356;-60
2022/01/23 14:30:45;;;;;;;;;;;-2.10;99.90;;;;;;4173861;28;19998;-61
2022/01/23 14:32:50;;;;;;;;;;;-2.10;99.90;;;;;;4174367;28;19912;-60
2022/01/23 14:35:11;;;;;;;;;;;-2.20;99.90;;;;;;4173815;28;19971;-60
2022/01/23 14:37:13;;;;;;;;;;;-2.20;99.90;;;;;;4174218;28;19917;-62
2022/01/23 14:39:14;;;;;;;;;;;-2.20;99.90;;;;;;4174279;28;19967;-62
2022/01/23 14:41:15;;;;;;;;;;;-2.20;99.90;;;;;;4174511;28;19913;-61
2022/01/23 14:43:16;;;;;;;;;;;-2.30;99.90;;;;;;4174687;28;20264;-59
2022/01/23 14:45:20;;;;;;;;;;;-2.20;99.90;;;;;;4172194;28;19916;-59
2022/01/23 14:47:20;;;;;;;;;;;-2.30;99.90;;;;;;4174743;28;19925;-57
2022/01/23 14:49:24;;;;;;;;;;;-2.30;99.90;;;;;;4154846;28;19920;-58
2022/01/23 14:51:27;;;;;;;;;;;-2.40;99.90;;;;;;4174460;28;19912;-57
2022/01/23 14:53:28;;;;;;;;;;;-2.40;99.90;;;;;;4172594;28;19982;-61
2022/01/23 14:55:29;;;;;;;;;;;-2.40;99.90;;;;;;4174814;28;19912;-60
2022/01/23 14:57:31;;;;;;;;;;;-2.50;99.90;;;;;;4173207;28;19912;-61
2022/01/23 14:59:35;;;;;;;;;;;-2.50;99.90;;;;;;4174536;28;19939;-60
2022/01/23 15:01:37;;;;;;;;;;;-2.50;99.90;;;;;;4172777;28;20285;-60
2022/01/23 15:03:39;;;;;;;;;;;-2.50;99.90;;;;;;4174574;28;19966;-60
2022/01/23 15:05:40;;;;;;;;;;;-2.60;99.90;;;;;;4172743;28;19913;-60
2022/01/23 15:07:41;;;;;;;;;;;-2.60;99.90;;;;;;4174325;28;19974;-61
2022/01/23 15:09:44;;;;;;;;;;;-2.60;99.90;;;;;;4173494;28;20380;-58
2022/01/23 15:11:45;;;;;;;;;;;-2.60;99.90;;;;;;4174028;28;19959;-60
2022/01/23 15:13:46;;;;;;;;;;;-2.60;99.90;;;;;;4173735;28;19943;-60
2022/01/23 15:15:47;;;;;;;;;;;-2.60;99.90;;;;;;4173326;28;19921;-59
2022/01/23 15:17:48;;;;;;;;;;;-2.60;99.90;;;;;;4173939;28;20365;-60
2022/01/23 15:19:49;;;;;;;;;;;-2.60;99.90;;;;;;4172980;28;19913;-60
2022/01/23 15:21:50;;;;;;;;;;;-2.60;99.90;;;;;;4155959;28;19909;-60
2022/01/23 15:23:55;;;;;;;;;;;-2.80;99.90;;;;;;4172587;28;19959;-60
2022/01/23 15:25:56;;;;;;;;;;;-3.00;99.90;;;;;;4174181;28;19955;-59
2022/01/23 15:27:57;;;;;;;;;;;-3.20;99.90;;;;;;4172238;28;20015;-61
2022/01/23 15:29:58;;;;;;;;;;;-3.20;99.90;;;;;;4174360;28;19913;-61
2022/01/23 15:32:00;;;;;;;;;;;-3.30;99.90;;;;;;4173305;28;19921;-61
2022/01/23 15:34:01;;;;;;;;;;;-3.30;99.90;;;;;;4173812;28;20217;-61
2022/01/23 15:36:02;;;;;;;;;;;-3.40;99.90;;;;;;4172789;28;19917;-60
2022/01/23 15:38:03;;;;;;;;;;;-3.50;99.90;;;;;;4174210;28;19962;-59